sensor_id;sensor_type;location;lat;lon;timestamp;pressure;altitude;pressure_sealevel;temperature
12430;BMP280;6279;42.192;24.326;2022-07-23T00:00:07;99098.19;;;23.50
12430;BMP280;6279;42.192;24.326;2022-07-23T00:02:33;99100.38;;;23.58
12430;BMP280;6279;42.192;24.326;2022-07-23T00:04:58;99089.97;;;23.52
12430;BMP280;6279;42.192;24.326;2022-07-23T00:07:24;99098.44;;;23.49
12430;BMP280;6279;42.192;24.326;2022-07-23T00:09:49;99110.25;;;23.41
12430;BMP280;6279;42.192;24.326;2022-07-23T00:12:15;99104.28;;;23.34
12430;BMP280;6279;42.192;24.326;2022-07-23T00:14:40;99105.19;;;23.24
12430;BMP280;6279;42.192;24.326;2022-07-23T00:17:06;99108.50;;;23.14
12430;BMP280;6279;42.192;24.326;2022-07-23T00:19:31;99103.69;;;23.11
12430;BMP280;6279;42.192;24.326;2022-07-23T00:21:57;99108.44;;;23.09
12430;BMP280;6279;42.192;24.326;2022-07-23T00:24:22;99104.75;;;23.10
12430;BMP280;6279;42.192;24.326;2022-07-23T00:26:47;99106.13;;;22.97
12430;BMP280;6279;42.192;24.326;2022-07-23T00:29:13;99100.25;;;23.11
12430;BMP280;6279;42.192;24.326;2022-07-23T00:31:38;99108.84;;;23.18
12430;BMP280;6279;42.192;24.326;2022-07-23T00:34:04;99111.91;;;22.94
12430;BMP280;6279;42.192;24.326;2022-07-23T00:36:29;99106.28;;;22.90
12430;BMP280;6279;42.192;24.326;2022-07-23T00:38:56;99113.66;;;22.88
12430;BMP280;6279;42.192;24.326;2022-07-23T00:41:22;99105.94;;;22.87
12430;BMP280;6279;42.192;24.326;2022-07-23T00:43:47;99111.00;;;22.88
12430;BMP280;6279;42.192;24.326;2022-07-23T00:46:12;99105.75;;;22.72
12430;BMP280;6279;42.192;24.326;2022-07-23T00:48:38;99101.63;;;22.81
12430;BMP280;6279;42.192;24.326;2022-07-23T00:51:04;99112.09;;;22.71
12430;BMP280;6279;42.192;24.326;2022-07-23T00:53:29;99110.44;;;22.54
12430;BMP280;6279;42.192;24.326;2022-07-23T00:55:57;99106.63;;;22.50
12430;BMP280;6279;42.192;24.326;2022-07-23T00:58:24;99107.34;;;22.46
12430;BMP280;6279;42.192;24.326;2022-07-23T01:00:49;99103.41;;;22.48
12430;BMP280;6279;42.192;24.326;2022-07-23T01:03:14;99107.31;;;22.30
12430;BMP280;6279;42.192;24.326;2022-07-23T01:05:40;99100.38;;;22.13
12430;BMP280;6279;42.192;24.326;2022-07-23T01:08:06;99105.34;;;22.09
12430;BMP280;6279;42.192;24.326;2022-07-23T01:10:32;99108.31;;;22.13
12430;BMP280;6279;42.192;24.326;2022-07-23T01:12:59;99105.97;;;22.00
12430;BMP280;6279;42.192;24.326;2022-07-23T01:15:25;99108.97;;;22.03
12430;BMP280;6279;42.192;24.326;2022-07-23T01:17:51;99110.47;;;21.99
12430;BMP280;6279;42.192;24.326;2022-07-23T01:20:17;99106.66;;;21.96
12430;BMP280;6279;42.192;24.326;2022-07-23T01:22:43;99105.19;;;21.99
12430;BMP280;6279;42.192;24.326;2022-07-23T01:25:09;99105.50;;;22.03
12430;BMP280;6279;42.192;24.326;2022-07-23T01:27:34;99099.03;;;21.99
12430;BMP280;6279;42.192;24.326;2022-07-23T01:30:01;99095.16;;;22.01
12430;BMP280;6279;42.192;24.326;2022-07-23T01:32:27;99098.69;;;22.07
12430;BMP280;6279;42.192;24.326;2022-07-23T01:34:53;99096.94;;;22.12
12430;BMP280;6279;42.192;24.326;2022-07-23T01:37:18;99089.47;;;22.09
12430;BMP280;6279;42.192;24.326;2022-07-23T01:39:44;99095.72;;;22.03
12430;BMP280;6279;42.192;24.326;2022-07-23T01:42:09;99103.25;;;22.11
12430;BMP280;6279;42.192;24.326;2022-07-23T01:44:35;99094.66;;;22.04
12430;BMP280;6279;42.192;24.326;2022-07-23T01:47:00;99096.84;;;22.07
12430;BMP280;6279;42.192;24.326;2022-07-23T01:49:25;99101.00;;;22.03
12430;BMP280;6279;42.192;24.326;2022-07-23T01:51:51;99101.81;;;22.04
12430;BMP280;6279;42.192;24.326;2022-07-23T01:54:33;99101.97;;;21.75
12430;BMP280;6279;42.192;24.326;2022-07-23T01:56:59;99103.91;;;21.79
12430;BMP280;6279;42.192;24.326;2022-07-23T01:59:27;99106.63;;;21.57
12430;BMP280;6279;42.192;24.326;2022-07-23T02:01:53;99104.09;;;21.62
12430;BMP280;6279;42.192;24.326;2022-07-23T02:04:20;99111.34;;;21.66
12430;BMP280;6279;42.192;24.326;2022-07-23T02:06:45;99110.97;;;21.63
12430;BMP280;6279;42.192;24.326;2022-07-23T02:09:11;99109.03;;;21.58
12430;BMP280;6279;42.192;24.326;2022-07-23T02:11:36;99102.47;;;21.72
12430;BMP280;6279;42.192;24.326;2022-07-23T02:14:02;99101.69;;;21.60
12430;BMP280;6279;42.192;24.326;2022-07-23T02:16:27;99090.03;;;21.61
12430;BMP280;6279;42.192;24.326;2022-07-23T02:18:53;99099.41;;;21.53
12430;BMP280;6279;42.192;24.326;2022-07-23T02:21:18;99103.00;;;21.47
12430;BMP280;6279;42.192;24.326;2022-07-23T02:23:44;99097.94;;;21.34
12430;BMP280;6279;42.192;24.326;2022-07-23T02:26:09;99104.94;;;21.40
12430;BMP280;6279;42.192;24.326;2022-07-23T02:28:34;99102.28;;;21.51
12430;BMP280;6279;42.192;24.326;2022-07-23T02:31:00;99101.47;;;21.51
12430;BMP280;6279;42.192;24.326;2022-07-23T02:33:25;99101.38;;;21.46
12430;BMP280;6279;42.192;24.326;2022-07-23T02:35:51;99102.84;;;21.53
12430;BMP280;6279;42.192;24.326;2022-07-23T02:38:16;99103.44;;;21.44
12430;BMP280;6279;42.192;24.326;2022-07-23T02:40:41;99107.69;;;21.45
12430;BMP280;6279;42.192;24.326;2022-07-23T02:43:07;99115.75;;;21.50
12430;BMP280;6279;42.192;24.326;2022-07-23T02:45:32;99114.25;;;21.53
12430;BMP280;6279;42.192;24.326;2022-07-23T02:47:58;99114.00;;;21.44
12430;BMP280;6279;42.192;24.326;2022-07-23T02:50:23;99115.19;;;21.36
12430;BMP280;6279;42.192;24.326;2022-07-23T02:52:48;99108.38;;;21.40
12430;BMP280;6279;42.192;24.326;2022-07-23T02:55:14;99119.09;;;21.34
12430;BMP280;6279;42.192;24.326;2022-07-23T02:57:40;99123.47;;;21.40
12430;BMP280;6279;42.192;24.326;2022-07-23T03:00:06;99121.38;;;21.42
12430;BMP280;6279;42.192;24.326;2022-07-23T03:02:32;99103.91;;;21.41
12430;BMP280;6279;42.192;24.326;2022-07-23T03:04:58;99104.22;;;21.44
12430;BMP280;6279;42.192;24.326;2022-07-23T03:07:24;99105.03;;;21.45
12430;BMP280;6279;42.192;24.326;2022-07-23T03:09:49;99111.13;;;21.45
12430;BMP280;6279;42.192;24.326;2022-07-23T03:12:15;99124.16;;;21.35
12430;BMP280;6279;42.192;24.326;2022-07-23T03:14:41;99119.09;;;21.34
12430;BMP280;6279;42.192;24.326;2022-07-23T03:17:06;99113.81;;;21.34
12430;BMP280;6279;42.192;24.326;2022-07-23T03:19:32;99118.16;;;21.40
12430;BMP280;6279;42.192;24.326;2022-07-23T03:21:57;99118.06;;;21.46
12430;BMP280;6279;42.192;24.326;2022-07-23T03:24:23;99132.66;;;21.49
12430;BMP280;6279;42.192;24.326;2022-07-23T03:27:08;99129.81;;;21.28
12430;BMP280;6279;42.192;24.326;2022-07-23T03:29:33;99132.56;;;21.32
12430;BMP280;6279;42.192;24.326;2022-07-23T03:31:59;99128.28;;;21.43
12430;BMP280;6279;42.192;24.326;2022-07-23T03:34:24;99124.72;;;21.49
12430;BMP280;6279;42.192;24.326;2022-07-23T03:36:50;99125.63;;;21.54
12430;BMP280;6279;42.192;24.326;2022-07-23T03:39:15;99135.59;;;21.63
12430;BMP280;6279;42.192;24.326;2022-07-23T03:41:41;99136.09;;;21.60
12430;BMP280;6279;42.192;24.326;2022-07-23T03:44:06;99138.41;;;21.57
12430;BMP280;6279;42.192;24.326;2022-07-23T03:46:32;99143.13;;;21.44
12430;BMP280;6279;42.192;24.326;2022-07-23T03:48:57;99137.59;;;21.56
12430;BMP280;6279;42.192;24.326;2022-07-23T03:51:22;99133.56;;;21.65
12430;BMP280;6279;42.192;24.326;2022-07-23T03:53:48;99129.88;;;21.66
12430;BMP280;6279;42.192;24.326;2022-07-23T03:56:14;99134.81;;;21.63
12430;BMP280;6279;42.192;24.326;2022-07-23T03:58:39;99131.50;;;21.67
12430;BMP280;6279;42.192;24.326;2022-07-23T04:01:05;99134.56;;;21.75
12430;BMP280;6279;42.192;24.326;2022-07-23T04:03:30;99138.25;;;21.75
12430;BMP280;6279;42.192;24.326;2022-07-23T04:05:56;99141.13;;;21.73
12430;BMP280;6279;42.192;24.326;2022-07-23T04:08:21;99142.03;;;21.78
12430;BMP280;6279;42.192;24.326;2022-07-23T04:10:47;99138.00;;;21.87
12430;BMP280;6279;42.192;24.326;2022-07-23T04:13:12;99140.34;;;22.11
12430;BMP280;6279;42.192;24.326;2022-07-23T04:15:38;99135.09;;;22.27
12430;BMP280;6279;42.192;24.326;2022-07-23T04:18:03;99144.31;;;22.52
12430;BMP280;6279;42.192;24.326;2022-07-23T04:20:29;99142.88;;;22.72
12430;BMP280;6279;42.192;24.326;2022-07-23T04:22:54;99144.00;;;22.92
12430;BMP280;6279;42.192;24.326;2022-07-23T04:25:19;99131.34;;;23.15
12430;BMP280;6279;42.192;24.326;2022-07-23T04:27:45;99131.75;;;23.40
12430;BMP280;6279;42.192;24.326;2022-07-23T04:30:10;99128.53;;;23.59
12430;BMP280;6279;42.192;24.326;2022-07-23T04:32:36;99139.63;;;23.72
12430;BMP280;6279;42.192;24.326;2022-07-23T04:35:01;99132.78;;;23.97
12430;BMP280;6279;42.192;24.326;2022-07-23T04:37:27;99138.81;;;24.14
12430;BMP280;6279;42.192;24.326;2022-07-23T04:39:52;99134.84;;;24.37
12430;BMP280;6279;42.192;24.326;2022-07-23T04:42:18;99136.28;;;24.49
12430;BMP280;6279;42.192;24.326;2022-07-23T04:44:43;99141.34;;;24.72
12430;BMP280;6279;42.192;24.326;2022-07-23T04:47:09;99147.59;;;24.87
12430;BMP280;6279;42.192;24.326;2022-07-23T04:49:35;99135.53;;;25.10
12430;BMP280;6279;42.192;24.326;2022-07-23T04:52:01;99144.19;;;25.27
12430;BMP280;6279;42.192;24.326;2022-07-23T04:54:26;99138.41;;;25.35
12430;BMP280;6279;42.192;24.326;2022-07-23T04:56:52;99142.75;;;25.46
12430;BMP280;6279;42.192;24.326;2022-07-23T04:59:17;99134.09;;;26.35
12430;BMP280;6279;42.192;24.326;2022-07-23T05:01:43;99125.91;;;27.05
12430;BMP280;6279;42.192;24.326;2022-07-23T05:04:08;99121.53;;;27.72
12430;BMP280;6279;42.192;24.326;2022-07-23T05:06:33;99126.16;;;28.19
12430;BMP280;6279;42.192;24.326;2022-07-23T05:08:59;99127.25;;;28.65
12430;BMP280;6279;42.192;24.326;2022-07-23T05:11:24;99144.00;;;29.13
12430;BMP280;6279;42.192;24.326;2022-07-23T05:13:50;99141.09;;;29.66
12430;BMP280;6279;42.192;24.326;2022-07-23T05:16:16;99142.19;;;29.88
12430;BMP280;6279;42.192;24.326;2022-07-23T05:18:42;99141.13;;;30.30
12430;BMP280;6279;42.192;24.326;2022-07-23T05:21:07;99134.09;;;30.34
12430;BMP280;6279;42.192;24.326;2022-07-23T05:23:33;99138.06;;;30.59
12430;BMP280;6279;42.192;24.326;2022-07-23T05:25:58;99139.81;;;31.00
12430;BMP280;6279;42.192;24.326;2022-07-23T05:28:23;99139.41;;;31.24
12430;BMP280;6279;42.192;24.326;2022-07-23T05:30:49;99133.31;;;31.50
12430;BMP280;6279;42.192;24.326;2022-07-23T05:33:14;99137.34;;;31.66
12430;BMP280;6279;42.192;24.326;2022-07-23T05:35:40;99134.34;;;31.94
12430;BMP280;6279;42.192;24.326;2022-07-23T05:38:05;99125.84;;;32.00
12430;BMP280;6279;42.192;24.326;2022-07-23T05:40:30;99133.16;;;31.86
12430;BMP280;6279;42.192;24.326;2022-07-23T05:42:58;99124.19;;;31.77
12430;BMP280;6279;42.192;24.326;2022-07-23T05:45:23;99122.09;;;31.88
12430;BMP280;6279;42.192;24.326;2022-07-23T05:47:49;99131.16;;;32.18
12430;BMP280;6279;42.192;24.326;2022-07-23T05:50:15;99123.22;;;32.48
12430;BMP280;6279;42.192;24.326;2022-07-23T05:52:41;99122.00;;;32.54
12430;BMP280;6279;42.192;24.326;2022-07-23T05:55:08;99124.78;;;32.75
12430;BMP280;6279;42.192;24.326;2022-07-23T05:57:34;99119.47;;;32.70
12430;BMP280;6279;42.192;24.326;2022-07-23T05:59:59;99121.59;;;32.73
12430;BMP280;6279;42.192;24.326;2022-07-23T06:02:31;99121.81;;;32.85
12430;BMP280;6279;42.192;24.326;2022-07-23T06:04:56;99125.63;;;32.84
12430;BMP280;6279;42.192;24.326;2022-07-23T06:07:24;99127.56;;;32.70
12430;BMP280;6279;42.192;24.326;2022-07-23T06:09:50;99129.19;;;32.93
12430;BMP280;6279;42.192;24.326;2022-07-23T06:12:16;99127.91;;;32.90
12430;BMP280;6279;42.192;24.326;2022-07-23T06:14:42;99124.44;;;33.11
12430;BMP280;6279;42.192;24.326;2022-07-23T06:17:07;99121.94;;;33.45
12430;BMP280;6279;42.192;24.326;2022-07-23T06:19:33;99113.25;;;33.56
12430;BMP280;6279;42.192;24.326;2022-07-23T06:21:58;99111.78;;;33.80
12430;BMP280;6279;42.192;24.326;2022-07-23T06:24:24;99106.81;;;34.12
12430;BMP280;6279;42.192;24.326;2022-07-23T06:26:49;99116.41;;;34.42
12430;BMP280;6279;42.192;24.326;2022-07-23T06:29:14;99110.69;;;34.85
12430;BMP280;6279;42.192;24.326;2022-07-23T06:31:40;99110.69;;;35.02
12430;BMP280;6279;42.192;24.326;2022-07-23T06:34:05;99114.69;;;35.05
12430;BMP280;6279;42.192;24.326;2022-07-23T06:36:31;99108.59;;;35.41
12430;BMP280;6279;42.192;24.326;2022-07-23T06:38:56;99106.44;;;35.63
12430;BMP280;6279;42.192;24.326;2022-07-23T06:41:23;99104.44;;;35.43
12430;BMP280;6279;42.192;24.326;2022-07-23T06:43:49;99098.63;;;35.00
12430;BMP280;6279;42.192;24.326;2022-07-23T06:46:15;99098.47;;;34.46
12430;BMP280;6279;42.192;24.326;2022-07-23T06:48:40;99098.00;;;34.94
12430;BMP280;6279;42.192;24.326;2022-07-23T06:51:05;99099.13;;;35.55
12430;BMP280;6279;42.192;24.326;2022-07-23T06:53:31;99099.53;;;35.73
12430;BMP280;6279;42.192;24.326;2022-07-23T06:55:56;99086.22;;;35.97
12430;BMP280;6279;42.192;24.326;2022-07-23T06:58:22;99088.84;;;36.14
12430;BMP280;6279;42.192;24.326;2022-07-23T07:00:47;99087.13;;;36.29
12430;BMP280;6279;42.192;24.326;2022-07-23T07:03:13;99090.78;;;36.53
12430;BMP280;6279;42.192;24.326;2022-07-23T07:05:38;99088.50;;;36.84
12430;BMP280;6279;42.192;24.326;2022-07-23T07:08:05;99090.91;;;37.29
12430;BMP280;6279;42.192;24.326;2022-07-23T07:10:31;99081.69;;;37.88
12430;BMP280;6279;42.192;24.326;2022-07-23T07:12:57;99074.31;;;38.24
12430;BMP280;6279;42.192;24.326;2022-07-23T07:15:22;99071.50;;;38.32
12430;BMP280;6279;42.192;24.326;2022-07-23T07:17:48;99069.03;;;38.16
12430;BMP280;6279;42.192;24.326;2022-07-23T07:20:13;99071.31;;;38.14
12430;BMP280;6279;42.192;24.326;2022-07-23T07:22:39;99070.16;;;37.68
12430;BMP280;6279;42.192;24.326;2022-07-23T07:25:05;99078.63;;;36.79
12430;BMP280;6279;42.192;24.326;2022-07-23T07:27:31;99067.19;;;36.74
12430;BMP280;6279;42.192;24.326;2022-07-23T07:29:56;99063.69;;;37.49
12430;BMP280;6279;42.192;24.326;2022-07-23T07:32:21;99058.50;;;38.14
12430;BMP280;6279;42.192;24.326;2022-07-23T07:34:47;99060.38;;;38.49
12430;BMP280;6279;42.192;24.326;2022-07-23T07:37:13;99061.59;;;38.51
12430;BMP280;6279;42.192;24.326;2022-07-23T07:39:38;99050.16;;;39.42
12430;BMP280;6279;42.192;24.326;2022-07-23T07:42:04;99050.69;;;40.08
12430;BMP280;6279;42.192;24.326;2022-07-23T07:44:29;99047.44;;;40.73
12430;BMP280;6279;42.192;24.326;2022-07-23T07:46:55;99054.56;;;41.37
12430;BMP280;6279;42.192;24.326;2022-07-23T07:49:20;99043.16;;;41.54
12430;BMP280;6279;42.192;24.326;2022-07-23T07:51:46;99043.63;;;42.06
12430;BMP280;6279;42.192;24.326;2022-07-23T07:54:12;99031.28;;;42.44
12430;BMP280;6279;42.192;24.326;2022-07-23T07:56:37;99046.94;;;42.76
12430;BMP280;6279;42.192;24.326;2022-07-23T07:59:03;99038.38;;;42.78
12430;BMP280;6279;42.192;24.326;2022-07-23T08:01:28;99036.63;;;43.31
12430;BMP280;6279;42.192;24.326;2022-07-23T08:03:54;99041.13;;;43.53
12430;BMP280;6279;42.192;24.326;2022-07-23T08:06:19;99032.63;;;44.21
12430;BMP280;6279;42.192;24.326;2022-07-23T08:08:45;99023.63;;;44.23
12430;BMP280;6279;42.192;24.326;2022-07-23T08:11:10;99023.66;;;43.71
12430;BMP280;6279;42.192;24.326;2022-07-23T08:13:36;99016.28;;;44.45
12430;BMP280;6279;42.192;24.326;2022-07-23T08:16:01;99005.50;;;44.96
12430;BMP280;6279;42.192;24.326;2022-07-23T08:18:27;99007.91;;;45.14
12430;BMP280;6279;42.192;24.326;2022-07-23T08:20:52;99002.44;;;45.28
12430;BMP280;6279;42.192;24.326;2022-07-23T08:23:18;98994.41;;;44.55
12430;BMP280;6279;42.192;24.326;2022-07-23T08:25:45;98991.91;;;43.66
12430;BMP280;6279;42.192;24.326;2022-07-23T08:28:13;98983.13;;;44.87
12430;BMP280;6279;42.192;24.326;2022-07-23T08:30:39;98983.91;;;46.11
12430;BMP280;6279;42.192;24.326;2022-07-23T08:33:13;98985.88;;;46.10
12430;BMP280;6279;42.192;24.326;2022-07-23T08:35:44;98983.97;;;45.83
12430;BMP280;6279;42.192;24.326;2022-07-23T08:38:13;98985.41;;;46.29
12430;BMP280;6279;42.192;24.326;2022-07-23T08:40:46;98978.25;;;48.71
12430;BMP280;6279;42.192;24.326;2022-07-23T08:43:19;98983.00;;;49.48
12430;BMP280;6279;42.192;24.326;2022-07-23T08:45:47;98974.28;;;51.21
12430;BMP280;6279;42.192;24.326;2022-07-23T08:48:15;98978.44;;;51.44
12430;BMP280;6279;42.192;24.326;2022-07-23T08:50:46;98980.00;;;51.45
12430;BMP280;6279;42.192;24.326;2022-07-23T08:53:12;98966.50;;;51.16
12430;BMP280;6279;42.192;24.326;2022-07-23T08:55:37;98975.59;;;52.07
12430;BMP280;6279;42.192;24.326;2022-07-23T08:58:03;98967.66;;;53.35
12430;BMP280;6279;42.192;24.326;2022-07-23T09:00:29;98974.75;;;53.93
12430;BMP280;6279;42.192;24.326;2022-07-23T09:02:54;98967.06;;;54.18
12430;BMP280;6279;42.192;24.326;2022-07-23T09:05:20;98970.66;;;53.28
12430;BMP280;6279;42.192;24.326;2022-07-23T09:10:57;98961.63;;;54.57
12430;BMP280;6279;42.192;24.326;2022-07-23T09:15:58;98961.53;;;54.69
12430;BMP280;6279;42.192;24.326;2022-07-23T09:18:40;98950.28;;;55.85
12430;BMP280;6279;42.192;24.326;2022-07-23T09:23:47;98949.16;;;54.40
12430;BMP280;6279;42.192;24.326;2022-07-23T09:26:36;98942.00;;;55.73
12430;BMP280;6279;42.192;24.326;2022-07-23T09:31:44;98940.16;;;55.96
12430;BMP280;6279;42.192;24.326;2022-07-23T09:34:14;98937.03;;;55.77
12430;BMP280;6279;42.192;24.326;2022-07-23T09:36:40;98931.47;;;55.68
12430;BMP280;6279;42.192;24.326;2022-07-23T09:39:06;98928.69;;;55.86
12430;BMP280;6279;42.192;24.326;2022-07-23T09:41:37;98922.31;;;56.03
12430;BMP280;6279;42.192;24.326;2022-07-23T09:44:11;98920.25;;;55.24
12430;BMP280;6279;42.192;24.326;2022-07-23T09:46:38;98912.97;;;54.88
12430;BMP280;6279;42.192;24.326;2022-07-23T09:49:31;98909.72;;;54.89
12430;BMP280;6279;42.192;24.326;2022-07-23T09:51:59;98918.69;;;53.37
12430;BMP280;6279;42.192;24.326;2022-07-23T09:54:38;98912.88;;;52.86
12430;BMP280;6279;42.192;24.326;2022-07-23T09:57:07;98920.53;;;52.18
12430;BMP280;6279;42.192;24.326;2022-07-23T09:59:37;98909.94;;;53.26
12430;BMP280;6279;42.192;24.326;2022-07-23T10:02:03;98906.88;;;52.88
12430;BMP280;6279;42.192;24.326;2022-07-23T10:04:31;98909.41;;;52.82
12430;BMP280;6279;42.192;24.326;2022-07-23T10:07:00;98905.09;;;53.51
12430;BMP280;6279;42.192;24.326;2022-07-23T10:09:30;98909.81;;;53.30
12430;BMP280;6279;42.192;24.326;2022-07-23T10:11:58;98897.28;;;53.59
12430;BMP280;6279;42.192;24.326;2022-07-23T10:14:31;98896.50;;;53.58
12430;BMP280;6279;42.192;24.326;2022-07-23T10:17:00;98891.28;;;54.23
12430;BMP280;6279;42.192;24.326;2022-07-23T10:19:26;98883.03;;;54.71
12430;BMP280;6279;42.192;24.326;2022-07-23T10:21:55;98885.00;;;53.89
12430;BMP280;6279;42.192;24.326;2022-07-23T10:30:09;98878.03;;;55.04
12430;BMP280;6279;42.192;24.326;2022-07-23T10:33:05;98877.59;;;52.34
12430;BMP280;6279;42.192;24.326;2022-07-23T10:38:13;98873.50;;;50.30
12430;BMP280;6279;42.192;24.326;2022-07-23T10:40:57;98870.41;;;49.03
12430;BMP280;6279;42.192;24.326;2022-07-23T10:43:23;98871.31;;;47.50
12430;BMP280;6279;42.192;24.326;2022-07-23T10:45:49;98864.34;;;47.72
12430;BMP280;6279;42.192;24.326;2022-07-23T10:48:17;98862.25;;;48.71
12430;BMP280;6279;42.192;24.326;2022-07-23T10:50:44;98855.72;;;49.10
12430;BMP280;6279;42.192;24.326;2022-07-23T10:53:17;98847.78;;;50.64
12430;BMP280;6279;42.192;24.326;2022-07-23T10:55:49;98853.69;;;50.97
12430;BMP280;6279;42.192;24.326;2022-07-23T11:01:33;98841.81;;;47.04
12430;BMP280;6279;42.192;24.326;2022-07-23T11:03:59;98840.50;;;46.76
12430;BMP280;6279;42.192;24.326;2022-07-23T11:09:40;98830.44;;;49.30
12430;BMP280;6279;42.192;24.326;2022-07-23T11:15:06;98826.25;;;49.45
12430;BMP280;6279;42.192;24.326;2022-07-23T11:25:08;98818.47;;;46.12
12430;BMP280;6279;42.192;24.326;2022-07-23T11:27:38;98817.44;;;45.76
12430;BMP280;6279;42.192;24.326;2022-07-23T11:30:05;98810.88;;;45.49
12430;BMP280;6279;42.192;24.326;2022-07-23T11:32:39;98817.56;;;44.49
12430;BMP280;6279;42.192;24.326;2022-07-23T11:35:22;98815.16;;;44.23
12430;BMP280;6279;42.192;24.326;2022-07-23T11:37:48;98813.94;;;44.11
12430;BMP280;6279;42.192;24.326;2022-07-23T11:40:16;98799.56;;;44.38
12430;BMP280;6279;42.192;24.326;2022-07-23T11:42:58;98794.88;;;45.00
12430;BMP280;6279;42.192;24.326;2022-07-23T11:45:30;98805.06;;;44.89
12430;BMP280;6279;42.192;24.326;2022-07-23T11:47:55;98799.84;;;44.16
12430;BMP280;6279;42.192;24.326;2022-07-23T11:50:23;98802.84;;;43.77
12430;BMP280;6279;42.192;24.326;2022-07-23T11:52:50;98803.75;;;42.75
12430;BMP280;6279;42.192;24.326;2022-07-23T11:55:16;98794.94;;;41.81
12430;BMP280;6279;42.192;24.326;2022-07-23T11:57:42;98796.09;;;42.12
12430;BMP280;6279;42.192;24.326;2022-07-23T12:00:18;98786.16;;;42.33
12430;BMP280;6279;42.192;24.326;2022-07-23T12:02:52;98790.19;;;42.43
12430;BMP280;6279;42.192;24.326;2022-07-23T12:05:23;98787.91;;;42.51
12430;BMP280;6279;42.192;24.326;2022-07-23T12:07:55;98780.03;;;42.43
12430;BMP280;6279;42.192;24.326;2022-07-23T12:10:41;98778.41;;;42.78
12430;BMP280;6279;42.192;24.326;2022-07-23T12:13:10;98774.94;;;42.88
12430;BMP280;6279;42.192;24.326;2022-07-23T12:15:44;98770.84;;;42.65
12430;BMP280;6279;42.192;24.326;2022-07-23T12:18:13;98768.53;;;42.73
12430;BMP280;6279;42.192;24.326;2022-07-23T12:20:41;98755.44;;;42.96
12430;BMP280;6279;42.192;24.326;2022-07-23T12:23:09;98765.34;;;42.65
12430;BMP280;6279;42.192;24.326;2022-07-23T12:25:37;98768.13;;;42.25
12430;BMP280;6279;42.192;24.326;2022-07-23T12:30:31;98754.53;;;42.36
12430;BMP280;6279;42.192;24.326;2022-07-23T12:32:58;98745.38;;;42.57
12430;BMP280;6279;42.192;24.326;2022-07-23T12:35:34;98748.38;;;42.03
12430;BMP280;6279;42.192;24.326;2022-07-23T12:38:02;98741.25;;;41.98
12430;BMP280;6279;42.192;24.326;2022-07-23T12:40:31;98735.16;;;42.08
12430;BMP280;6279;42.192;24.326;2022-07-23T12:43:10;98750.97;;;42.32
12430;BMP280;6279;42.192;24.326;2022-07-23T12:48:35;98740.00;;;41.57
12430;BMP280;6279;42.192;24.326;2022-07-23T12:51:37;98727.94;;;41.29
12430;BMP280;6279;42.192;24.326;2022-07-23T12:54:08;98725.31;;;41.10
12430;BMP280;6279;42.192;24.326;2022-07-23T12:56:38;98722.50;;;41.04
12430;BMP280;6279;42.192;24.326;2022-07-23T12:59:09;98720.97;;;41.06
12430;BMP280;6279;42.192;24.326;2022-07-23T13:01:36;98718.59;;;41.30
12430;BMP280;6279;42.192;24.326;2022-07-23T13:04:10;98714.75;;;41.34
12430;BMP280;6279;42.192;24.326;2022-07-23T13:06:47;98717.97;;;41.43
12430;BMP280;6279;42.192;24.326;2022-07-23T13:09:33;98706.06;;;41.26
12430;BMP280;6279;42.192;24.326;2022-07-23T13:11:59;98710.22;;;41.16
12430;BMP280;6279;42.192;24.326;2022-07-23T13:14:25;98710.66;;;40.93
12430;BMP280;6279;42.192;24.326;2022-07-23T13:16:52;98718.41;;;40.65
12430;BMP280;6279;42.192;24.326;2022-07-23T13:19:18;98711.75;;;40.41
12430;BMP280;6279;42.192;24.326;2022-07-23T13:21:44;98708.88;;;40.31
12430;BMP280;6279;42.192;24.326;2022-07-23T13:24:11;98712.69;;;40.48
12430;BMP280;6279;42.192;24.326;2022-07-23T13:26:37;98713.06;;;40.72
12430;BMP280;6279;42.192;24.326;2022-07-23T13:29:04;98715.88;;;40.54
12430;BMP280;6279;42.192;24.326;2022-07-23T13:31:29;98714.69;;;40.29
12430;BMP280;6279;42.192;24.326;2022-07-23T13:33:55;98704.22;;;40.31
12430;BMP280;6279;42.192;24.326;2022-07-23T13:36:20;98704.09;;;40.46
12430;BMP280;6279;42.192;24.326;2022-07-23T13:38:45;98702.75;;;40.15
12430;BMP280;6279;42.192;24.326;2022-07-23T13:41:11;98701.91;;;40.33
12430;BMP280;6279;42.192;24.326;2022-07-23T13:43:36;98713.34;;;39.98
12430;BMP280;6279;42.192;24.326;2022-07-23T13:46:02;98715.97;;;39.54
12430;BMP280;6279;42.192;24.326;2022-07-23T13:48:27;98710.53;;;39.35
12430;BMP280;6279;42.192;24.326;2022-07-23T13:50:55;98714.78;;;38.99
12430;BMP280;6279;42.192;24.326;2022-07-23T13:53:23;98709.53;;;38.91
12430;BMP280;6279;42.192;24.326;2022-07-23T13:55:51;98711.72;;;39.01
12430;BMP280;6279;42.192;24.326;2022-07-23T13:58:17;98712.94;;;39.22
12430;BMP280;6279;42.192;24.326;2022-07-23T14:00:46;98707.22;;;39.27
12430;BMP280;6279;42.192;24.326;2022-07-23T14:03:12;98711.78;;;39.23
12430;BMP280;6279;42.192;24.326;2022-07-23T14:05:37;98706.81;;;39.43
12430;BMP280;6279;42.192;24.326;2022-07-23T14:08:03;98717.81;;;39.50
12430;BMP280;6279;42.192;24.326;2022-07-23T14:10:29;98701.28;;;39.58
12430;BMP280;6279;42.192;24.326;2022-07-23T14:12:54;98709.50;;;39.62
12430;BMP280;6279;42.192;24.326;2022-07-23T14:15:22;98699.19;;;39.33
12430;BMP280;6279;42.192;24.326;2022-07-23T14:17:48;98715.44;;;39.11
12430;BMP280;6279;42.192;24.326;2022-07-23T14:20:14;98710.78;;;39.12
12430;BMP280;6279;42.192;24.326;2022-07-23T14:22:40;98707.78;;;39.17
12430;BMP280;6279;42.192;24.326;2022-07-23T14:25:07;98709.50;;;39.06
12430;BMP280;6279;42.192;24.326;2022-07-23T14:27:33;98707.69;;;38.95
12430;BMP280;6279;42.192;24.326;2022-07-23T14:29:58;98700.16;;;38.88
12430;BMP280;6279;42.192;24.326;2022-07-23T14:32:24;98702.88;;;38.73
12430;BMP280;6279;42.192;24.326;2022-07-23T14:34:50;98701.56;;;38.83
12430;BMP280;6279;42.192;24.326;2022-07-23T14:37:16;98702.81;;;38.70
12430;BMP280;6279;42.192;24.326;2022-07-23T14:39:44;98698.88;;;38.67
12430;BMP280;6279;42.192;24.326;2022-07-23T14:42:10;98696.53;;;38.66
12430;BMP280;6279;42.192;24.326;2022-07-23T14:44:36;98696.75;;;38.76
12430;BMP280;6279;42.192;24.326;2022-07-23T14:47:02;98694.00;;;38.91
12430;BMP280;6279;42.192;24.326;2022-07-23T14:49:29;98691.16;;;39.03